createdAt,value
2022-10-09T00:01:33.904Z,8.20
2022-10-09T00:04:02.474Z,8.30
2022-10-09T00:06:35.435Z,8.20
2022-10-09T00:09:05.021Z,8.20
2022-10-09T00:11:37.229Z,8.00
2022-10-09T00:14:08.857Z,8.00
2022-10-09T00:16:37.628Z,8.00
2022-10-09T00:19:06.426Z,8.00
2022-10-09T00:21:35.345Z,8.00
2022-10-09T00:24:05.832Z,7.90
2022-10-09T00:29:06.365Z,7.80
2022-10-09T00:31:34.799Z,7.80
2022-10-09T00:34:03.140Z,7.70
2022-10-09T00:36:31.562Z,7.60
2022-10-09T00:38:59.800Z,7.60
2022-10-09T00:41:31.677Z,7.70
2022-10-09T00:44:02.875Z,7.70
2022-10-09T00:46:36.911Z,7.70
2022-10-09T00:49:22.099Z,7.70
2022-10-09T00:51:52.880Z,7.70
2022-10-09T00:54:25.761Z,7.70
2022-10-09T00:56:54.540Z,7.70
2022-10-09T00:59:24.563Z,7.70
2022-10-09T01:01:52.841Z,7.80
2022-10-09T01:04:21.333Z,7.80
2022-10-09T01:07:02.980Z,7.80
2022-10-09T01:09:39.321Z,7.80
2022-10-09T01:12:16.335Z,7.80
2022-10-09T01:14:57.914Z,7.70
2022-10-09T01:17:34.685Z,7.70
2022-10-09T01:20:27.853Z,7.70
2022-10-09T01:23:12.416Z,7.70
2022-10-09T01:25:50.869Z,7.70
2022-10-09T01:28:22.220Z,7.70
2022-10-09T01:30:50.786Z,7.70
2022-10-09T01:33:19.680Z,7.70
2022-10-09T01:35:48.372Z,7.80
2022-10-09T01:38:17.779Z,7.80
2022-10-09T01:40:46.227Z,7.80
2022-10-09T01:43:14.543Z,7.70
2022-10-09T01:45:45.927Z,7.70
2022-10-09T01:48:19.077Z,7.70
2022-10-09T01:50:49.586Z,7.60
2022-10-09T01:53:20.424Z,7.50
2022-10-09T01:55:55.850Z,7.30
2022-10-09T01:58:31.396Z,7.30
2022-10-09T02:01:06.676Z,7.30
2022-10-09T02:03:37.621Z,7.30
2022-10-09T02:06:07.606Z,7.30
2022-10-09T02:08:37.990Z,7.40
2022-10-09T02:11:07.241Z,7.30
2022-10-09T02:13:36.660Z,7.40
2022-10-09T02:16:14.557Z,7.40
2022-10-09T02:18:46.258Z,7.30
2022-10-09T02:21:22.171Z,7.20
2022-10-09T02:23:52.195Z,7.30
2022-10-09T02:26:20.921Z,7.40
2022-10-09T02:28:49.212Z,10.00
2022-10-09T02:31:24.217Z,7.40
2022-10-09T02:33:57.065Z,7.40
2022-10-09T02:36:28.679Z,8.60
2022-10-09T02:38:57.480Z,7.40
2022-10-09T02:41:26.906Z,7.40
2022-10-09T02:43:55.439Z,7.30
2022-10-09T02:46:25.507Z,7.30
2022-10-09T02:48:54.912Z,7.20
2022-10-09T02:51:23.491Z,7.30
2022-10-09T02:53:53.162Z,7.20
2022-10-09T02:56:25.657Z,7.30
2022-10-09T02:58:54.261Z,7.20
2022-10-09T03:01:24.512Z,7.20
2022-10-09T03:03:55.827Z,7.10
2022-10-09T03:06:25.676Z,7.10
2022-10-09T03:08:55.086Z,7.20
2022-10-09T03:11:24.754Z,7.10
2022-10-09T03:13:54.294Z,7.20
2022-10-09T03:16:25.846Z,7.20
2022-10-09T03:18:54.825Z,7.20
2022-10-09T03:21:25.457Z,7.20
2022-10-09T03:23:54.819Z,7.20
2022-10-09T03:26:30.424Z,7.10
2022-10-09T03:28:58.606Z,7.00
2022-10-09T03:34:17.108Z,6.90
2022-10-09T03:36:45.413Z,6.90
2022-10-09T03:39:13.503Z,6.90
2022-10-09T03:41:41.627Z,6.80
2022-10-09T03:44:10.016Z,6.80
2022-10-09T03:46:39.900Z,6.80
2022-10-09T03:49:08.838Z,6.80
2022-10-09T03:51:37.336Z,6.80
2022-10-09T03:54:05.967Z,6.80
2022-10-09T03:56:34.218Z,6.70
2022-10-09T03:59:05.439Z,6.70
2022-10-09T04:01:33.509Z,6.70
2022-10-09T04:04:03.529Z,6.80
2022-10-09T04:06:31.697Z,6.70
2022-10-09T04:09:01.229Z,6.80
2022-10-09T04:11:29.651Z,6.80
2022-10-09T04:13:58.267Z,6.80
2022-10-09T04:16:26.603Z,6.70
2022-10-09T04:21:24.699Z,6.60
2022-10-09T04:23:55.214Z,6.50
2022-10-09T04:26:23.399Z,6.50
2022-10-09T04:28:51.797Z,6.50
2022-10-09T04:31:20.172Z,6.50
2022-10-09T04:33:48.341Z,6.50
2022-10-09T04:36:17.166Z,6.40
2022-10-09T04:41:18.277Z,6.30
2022-10-09T04:43:46.324Z,6.40
2022-10-09T04:46:15.851Z,6.40
2022-10-09T04:48:45.864Z,6.40
2022-10-09T04:51:15.109Z,6.30
2022-10-09T04:53:44.065Z,6.40
2022-10-09T04:56:15.991Z,6.30
2022-10-09T04:58:45.040Z,6.20
2022-10-09T05:01:16.171Z,6.20
2022-10-09T05:03:47.027Z,6.20
2022-10-09T05:06:16.272Z,6.20
2022-10-09T05:08:44.977Z,6.30
2022-10-09T05:11:16.838Z,6.30
2022-10-09T05:13:49.307Z,6.40
2022-10-09T05:16:19.856Z,6.60
2022-10-09T05:18:49.929Z,6.50
2022-10-09T05:21:21.584Z,6.40
2022-10-09T05:23:53.865Z,6.40
2022-10-09T05:26:27.350Z,6.20
2022-10-09T05:28:55.506Z,6.10
2022-10-09T05:31:26.491Z,6.10
2022-10-09T05:33:54.836Z,6.10
2022-10-09T05:38:54.879Z,6.10
2022-10-09T05:41:24.650Z,6.10
2022-10-09T05:43:53.075Z,6.00
2022-10-09T05:46:23.928Z,5.90
2022-10-09T05:48:54.089Z,5.90
2022-10-09T05:51:24.414Z,5.90
2022-10-09T05:56:23.090Z,5.90
2022-10-09T05:58:54.425Z,5.90
2022-10-09T06:01:24.581Z,5.90
2022-10-09T06:03:54.820Z,5.90
2022-10-09T06:06:27.672Z,6.00
2022-10-09T06:08:56.854Z,6.00
2022-10-09T06:11:28.361Z,6.10
2022-10-09T06:14:01.548Z,6.10
2022-10-09T06:16:32.006Z,6.10
2022-10-09T06:19:00.854Z,6.10
2022-10-09T06:21:29.820Z,6.20
2022-10-09T06:24:00.174Z,6.20
2022-10-09T06:26:30.180Z,6.30
2022-10-09T06:29:01.535Z,6.40
2022-10-09T06:31:31.221Z,6.50
2022-10-09T06:34:00.961Z,6.60
2022-10-09T06:36:31.597Z,6.80
2022-10-09T06:39:01.042Z,6.80
2022-10-09T06:41:30.482Z,7.00
2022-10-09T06:44:01.614Z,7.00
2022-10-09T06:46:32.200Z,7.30
2022-10-09T06:49:01.058Z,7.40
2022-10-09T06:51:30.620Z,7.60
2022-10-09T06:54:01.022Z,7.70
2022-10-09T06:56:32.871Z,7.90
2022-10-09T06:59:05.507Z,7.90
2022-10-09T07:01:35.032Z,8.20
2022-10-09T07:04:06.997Z,8.20
2022-10-09T07:06:37.920Z,8.30
2022-10-09T07:09:08.151Z,8.50
2022-10-09T07:11:38.202Z,8.60
2022-10-09T07:14:09.738Z,8.70
2022-10-09T07:16:39.935Z,8.90
2022-10-09T07:19:11.257Z,8.90
2022-10-09T07:21:41.420Z,9.10
2022-10-09T07:24:10.667Z,9.20
2022-10-09T07:26:41.647Z,9.40
2022-10-09T07:29:13.256Z,9.60
2022-10-09T07:31:41.472Z,9.70
2022-10-09T07:34:10.056Z,9.90
2022-10-09T07:36:41.431Z,10.10
2022-10-09T07:39:09.732Z,10.30
2022-10-09T07:41:38.058Z,10.40
2022-10-09T07:44:06.440Z,10.60
2022-10-09T07:46:38.230Z,10.50
2022-10-09T07:49:06.592Z,10.70
2022-10-09T07:51:34.749Z,10.80
2022-10-09T07:54:04.284Z,10.90
2022-10-09T07:56:34.403Z,11.20
2022-10-09T07:59:07.333Z,11.20
2022-10-09T08:01:40.628Z,11.30
2022-10-09T08:04:09.339Z,11.40
2022-10-09T08:06:37.705Z,11.40
2022-10-09T08:09:07.814Z,11.30
2022-10-09T08:11:40.517Z,12.00
2022-10-09T08:14:10.279Z,11.60
2022-10-09T08:16:40.604Z,11.60
2022-10-09T08:19:08.977Z,11.60
2022-10-09T08:21:37.303Z,11.80
2022-10-09T08:24:05.728Z,11.80
2022-10-09T08:26:35.750Z,12.00
2022-10-09T08:29:06.607Z,12.10
2022-10-09T08:31:39.887Z,12.30
2022-10-09T08:34:08.179Z,12.10
2022-10-09T08:36:36.393Z,12.30
2022-10-09T08:39:05.383Z,12.40
2022-10-09T08:41:45.670Z,12.50
2022-10-09T08:44:24.833Z,12.60
2022-10-09T08:47:06.319Z,12.60
2022-10-09T08:49:42.572Z,12.80
2022-10-09T08:52:21.123Z,12.50
2022-10-09T08:54:50.152Z,12.70
2022-10-09T08:59:54.195Z,12.80
2022-10-09T09:02:49.479Z,12.90
2022-10-09T09:05:31.353Z,13.10
2022-10-09T09:08:07.779Z,13.10
2022-10-09T09:10:42.944Z,12.90
2022-10-09T09:13:29.374Z,13.10
2022-10-09T09:16:09.855Z,13.30
2022-10-09T09:18:46.467Z,13.20
2022-10-09T09:21:25.262Z,13.30
2022-10-09T09:23:59.592Z,13.30
2022-10-09T09:26:28.657Z,13.70
2022-10-09T09:29:02.142Z,13.70
2022-10-09T09:31:36.879Z,13.90
2022-10-09T09:34:12.652Z,14.00
2022-10-09T09:36:49.039Z,13.70
2022-10-09T09:42:15.921Z,14.00
2022-10-09T09:44:50.616Z,13.90
2022-10-09T09:47:24.925Z,13.80
2022-10-09T09:50:01.807Z,14.10
2022-10-09T09:52:35.515Z,14.20
2022-10-09T09:55:04.503Z,14.10
2022-10-09T09:57:38.692Z,13.90
2022-10-09T10:00:20.016Z,13.80
2022-10-09T10:02:48.775Z,13.90
2022-10-09T10:05:27.599Z,14.00
2022-10-09T10:07:57.739Z,14.00
2022-10-09T10:10:27.766Z,14.20
2022-10-09T10:12:58.282Z,14.30
2022-10-09T10:15:29.019Z,14.20
2022-10-09T10:18:03.505Z,14.20
2022-10-09T10:20:46.259Z,14.30
2022-10-09T10:23:27.249Z,14.00
2022-10-09T10:25:58.936Z,14.20
2022-10-09T10:28:36.335Z,14.30
2022-10-09T10:31:09.407Z,14.40
2022-10-09T10:33:39.371Z,14.90
2022-10-09T10:36:11.678Z,14.50
2022-10-09T10:38:46.195Z,14.60
2022-10-09T10:41:21.304Z,14.70
2022-10-09T10:43:52.660Z,14.70
2022-10-09T10:46:27.918Z,14.70
2022-10-09T10:49:04.773Z,14.70
2022-10-09T10:51:57.222Z,14.70
2022-10-09T10:54:34.696Z,15.00
2022-10-09T10:57:11.328Z,15.10
2022-10-09T10:59:43.796Z,15.30
2022-10-09T11:02:42.008Z,15.10
2022-10-09T11:05:22.801Z,14.90
2022-10-09T11:08:04.596Z,15.00
2022-10-09T11:10:39.963Z,15.00
2022-10-09T11:13:15.739Z,15.20
2022-10-09T11:15:55.019Z,15.20
2022-10-09T11:18:35.534Z,15.20
2022-10-09T11:21:22.787Z,15.20
2022-10-09T11:24:04.331Z,15.50
2022-10-09T11:26:42.412Z,15.60
2022-10-09T11:29:19.168Z,15.70
2022-10-09T11:31:53.775Z,15.60
2022-10-09T11:34:27.948Z,15.60
2022-10-09T11:36:57.773Z,15.60
2022-10-09T11:39:31.117Z,15.70
2022-10-09T11:42:00.533Z,15.70
2022-10-09T11:44:46.265Z,15.90
2022-10-09T11:47:23.217Z,15.80
2022-10-09T11:50:04.822Z,15.60
2022-10-09T11:52:43.864Z,15.40
2022-10-09T11:55:24.412Z,15.60
2022-10-09T11:57:53.474Z,15.90
2022-10-09T12:00:33.202Z,15.80
2022-10-09T12:03:06.764Z,15.60
2022-10-09T12:05:41.099Z,15.90
2022-10-09T12:08:18.497Z,15.90
2022-10-09T12:10:54.279Z,16.00
2022-10-09T12:13:45.121Z,16.20
2022-10-09T12:16:32.750Z,16.30
2022-10-09T12:19:03.423Z,16.40
2022-10-09T12:21:37.230Z,16.40
2022-10-09T12:24:06.628Z,16.40
2022-10-09T12:26:37.032Z,16.30
2022-10-09T12:29:05.880Z,16.50
2022-10-09T12:31:37.052Z,16.50
2022-10-09T12:34:16.429Z,16.60
2022-10-09T12:36:46.838Z,16.80
2022-10-09T12:39:17.787Z,16.80
2022-10-09T12:41:52.002Z,16.90
2022-10-09T12:44:28.124Z,16.80
2022-10-09T12:47:00.719Z,16.70
2022-10-09T12:49:29.098Z,16.70
2022-10-09T12:52:01.622Z,16.60
2022-10-09T12:54:32.741Z,16.40
2022-10-09T12:57:03.605Z,16.30
2022-10-09T12:59:32.004Z,16.30
2022-10-09T13:02:01.672Z,16.40
2022-10-09T13:04:32.036Z,16.30
2022-10-09T13:07:03.220Z,16.50
2022-10-09T13:09:37.047Z,16.60
2022-10-09T13:12:10.252Z,16.60
2022-10-09T13:14:45.227Z,16.80
2022-10-09T13:17:25.797Z,16.60
2022-10-09T13:19:59.007Z,16.70
2022-10-09T13:22:29.939Z,17.10
2022-10-09T13:25:00.371Z,17.00
2022-10-09T13:27:32.676Z,16.80
2022-10-09T13:30:02.548Z,16.70
2022-10-09T13:32:33.360Z,16.80
2022-10-09T13:35:02.007Z,16.90
2022-10-09T13:40:01.810Z,16.50
2022-10-09T13:42:36.666Z,16.60
2022-10-09T13:45:05.286Z,16.70
2022-10-09T13:47:33.483Z,16.80
2022-10-09T13:50:01.885Z,17.00
2022-10-09T13:52:30.417Z,17.00
2022-10-09T13:54:58.651Z,16.90
2022-10-09T13:57:27.450Z,16.70
2022-10-09T13:59:57.213Z,16.60
2022-10-09T14:02:27.020Z,16.80
2022-10-09T14:04:55.772Z,16.70
2022-10-09T14:07:23.896Z,16.80
2022-10-09T14:09:52.106Z,16.80
2022-10-09T14:12:20.429Z,16.70
2022-10-09T14:14:48.634Z,16.80
2022-10-09T14:17:18.125Z,16.80
2022-10-09T14:19:46.747Z,16.80
2022-10-09T14:22:17.371Z,16.80
2022-10-09T14:24:46.056Z,16.80
2022-10-09T14:27:14.253Z,16.80
2022-10-09T14:29:42.816Z,16.80
2022-10-09T14:32:10.946Z,16.70
2022-10-09T14:34:40.651Z,16.60
2022-10-09T14:37:18.868Z,16.70
2022-10-09T14:39:58.809Z,16.70
2022-10-09T14:42:27.518Z,16.60
2022-10-09T14:44:55.753Z,16.70
2022-10-09T14:47:26.215Z,16.60
2022-10-09T14:49:55.981Z,16.60
2022-10-09T14:52:24.211Z,16.40
2022-10-09T14:54:52.777Z,16.40
2022-10-09T14:57:20.929Z,16.40
2022-10-09T14:59:49.045Z,16.40
2022-10-09T15:02:19.584Z,16.50
2022-10-09T15:04:48.033Z,16.50
2022-10-09T15:09:47.567Z,16.40
2022-10-09T15:12:16.452Z,16.40
2022-10-09T15:17:14.104Z,16.50
2022-10-09T15:19:43.044Z,16.50
2022-10-09T15:22:12.267Z,16.50
2022-10-09T15:24:43.673Z,16.50
2022-10-09T15:27:13.163Z,16.40
2022-10-09T15:29:45.051Z,16.40
2022-10-09T15:32:14.162Z,16.40
2022-10-09T15:34:42.771Z,16.20
2022-10-09T15:37:11.331Z,16.20
2022-10-09T15:39:41.244Z,16.20
2022-10-09T15:42:11.509Z,16.40
2022-10-09T15:44:43.506Z,16.10
2022-10-09T15:47:16.552Z,16.00
2022-10-09T15:49:50.149Z,16.10
2022-10-09T15:52:22.351Z,16.10
2022-10-09T15:54:52.116Z,16.00
2022-10-09T15:57:20.414Z,16.00
2022-10-09T15:59:48.999Z,15.90
2022-10-09T16:02:17.513Z,15.90
2022-10-09T16:04:46.138Z,15.90
2022-10-09T16:07:17.271Z,15.80
2022-10-09T16:14:48.308Z,15.80
2022-10-09T16:17:18.513Z,15.70
2022-10-09T16:22:18.124Z,15.60
2022-10-09T16:27:19.044Z,15.50
2022-10-09T16:34:53.916Z,15.40
2022-10-09T16:44:56.718Z,15.20
2022-10-09T16:47:30.563Z,15.10
2022-10-09T16:50:00.523Z,15.00
2022-10-09T16:55:00.925Z,15.00
2022-10-09T17:02:36.449Z,15.10
2022-10-09T17:05:07.017Z,15.20
2022-10-09T17:15:44.732Z,13.60
2022-10-09T17:18:16.845Z,13.60
2022-10-09T17:20:49.431Z,12.80
2022-10-09T17:23:19.849Z,12.50
2022-10-09T17:30:58.074Z,12.10
2022-10-09T17:36:15.238Z,11.70
2022-10-09T17:39:01.738Z,11.80
2022-10-09T17:41:35.883Z,11.80
2022-10-09T17:52:01.396Z,11.50
2022-10-09T17:54:31.739Z,11.30
2022-10-09T17:59:48.318Z,11.30
2022-10-09T18:04:58.041Z,11.10
2022-10-09T18:27:55.439Z,10.50
2022-10-09T18:30:29.519Z,10.50
2022-10-09T18:33:01.930Z,10.50
2022-10-09T18:35:38.757Z,10.20
2022-10-09T18:38:12.753Z,10.10
2022-10-09T18:40:48.598Z,10.10
2022-10-09T18:43:19.939Z,9.90
2022-10-09T18:50:49.549Z,9.70
2022-10-09T19:03:15.586Z,9.60
2022-10-09T19:08:17.625Z,9.60
2022-10-09T19:10:52.973Z,9.60
2022-10-09T19:13:27.147Z,9.60
2022-10-09T19:18:29.755Z,9.70
2022-10-09T19:21:15.564Z,9.70
2022-10-09T19:26:14.860Z,9.50
2022-10-09T19:33:46.184Z,9.50
2022-10-09T19:46:24.933Z,9.20
2022-10-09T19:48:54.607Z,9.20
2022-10-09T19:57:10.983Z,9.10
2022-10-09T19:59:48.250Z,9.10
2022-10-09T20:02:57.141Z,9.20
2022-10-09T20:13:18.937Z,8.90
2022-10-09T20:15:47.413Z,8.90
2022-10-09T20:20:49.171Z,9.00
2022-10-09T20:23:19.169Z,9.00
2022-10-09T20:25:48.714Z,8.90
2022-10-09T20:30:57.086Z,8.90
2022-10-09T20:33:25.931Z,8.80
2022-10-09T20:35:55.910Z,8.80
2022-10-09T20:38:29.337Z,8.90
2022-10-09T20:41:03.673Z,8.90
2022-10-09T20:43:31.956Z,8.90
2022-10-09T20:46:00.167Z,8.90
2022-10-09T20:48:33.633Z,8.80
2022-10-09T20:51:02.234Z,8.80
2022-10-09T20:53:31.885Z,8.70
2022-10-09T20:56:05.087Z,8.80
2022-10-09T20:58:33.687Z,8.90
2022-10-09T21:01:04.217Z,8.90
2022-10-09T21:03:32.405Z,8.90
2022-10-09T21:06:02.935Z,8.90
2022-10-09T21:08:34.025Z,8.90
2022-10-09T21:11:06.970Z,8.70
2022-10-09T21:13:36.445Z,8.70
2022-10-09T21:16:07.568Z,8.70
2022-10-09T21:18:36.205Z,8.70
2022-10-09T21:21:06.126Z,8.70
2022-10-09T21:23:36.142Z,8.70
2022-10-09T21:26:04.878Z,8.70
2022-10-09T21:28:33.207Z,8.60
2022-10-09T21:31:02.112Z,8.60
2022-10-09T21:33:30.258Z,8.50
2022-10-09T21:35:58.668Z,8.50
2022-10-09T21:38:27.229Z,8.40
2022-10-09T21:40:56.744Z,8.30
2022-10-09T21:43:24.951Z,8.40
2022-10-09T21:45:53.389Z,8.40
2022-10-09T21:48:21.540Z,8.50
2022-10-09T21:50:50.845Z,8.50
2022-10-09T21:55:47.349Z,8.40
2022-10-09T21:58:16.846Z,8.40
2022-10-09T22:00:47.333Z,8.40
2022-10-09T22:03:15.546Z,8.30
2022-10-09T22:05:45.675Z,8.40
2022-10-09T22:08:13.883Z,8.40
2022-10-09T22:10:42.697Z,8.50
2022-10-09T22:13:10.951Z,8.60
2022-10-09T22:15:42.841Z,8.50
2022-10-09T22:18:11.886Z,8.50
2022-10-09T22:20:42.268Z,8.50
2022-10-09T22:23:11.561Z,8.50
2022-10-09T22:25:40.026Z,8.40
2022-10-09T22:28:09.467Z,8.40
2022-10-09T22:30:37.744Z,8.40
2022-10-09T22:33:07.184Z,8.40
2022-10-09T22:35:35.226Z,8.40
2022-10-09T22:38:03.676Z,8.40
2022-10-09T22:40:32.014Z,8.50
2022-10-09T22:43:00.532Z,8.40
2022-10-09T22:45:29.132Z,8.40
2022-10-09T22:47:57.528Z,8.20
2022-10-09T22:50:27.612Z,8.20
2022-10-09T22:52:57.133Z,8.20
2022-10-09T22:55:26.833Z,8.20
2022-10-09T22:57:55.083Z,8.20
2022-10-09T23:00:23.535Z,8.20
2022-10-09T23:02:52.249Z,8.10
2022-10-09T23:05:20.575Z,8.10
2022-10-09T23:07:50.038Z,8.10
2022-10-09T23:10:18.248Z,7.90
2022-10-09T23:12:48.971Z,7.90
2022-10-09T23:15:17.580Z,7.80
2022-10-09T23:17:45.820Z,7.90
2022-10-09T23:20:13.954Z,7.80
2022-10-09T23:22:42.057Z,7.80
2022-10-09T23:25:11.805Z,7.80
2022-10-09T23:27:39.915Z,7.70
2022-10-09T23:30:09.272Z,7.60
2022-10-09T23:32:37.367Z,7.60
2022-10-09T23:35:06.543Z,7.70
2022-10-09T23:37:34.738Z,7.80
2022-10-09T23:40:02.859Z,7.90
2022-10-09T23:42:32.338Z,7.90
2022-10-09T23:45:00.548Z,7.80
2022-10-09T23:47:28.672Z,7.80
2022-10-09T23:49:56.731Z,7.80
2022-10-09T23:52:24.798Z,7.80
2022-10-09T23:54:52.944Z,7.80
2022-10-09T23:57:21.114Z,7.70
2022-10-09T23:59:50.625Z,7.80
